Time;durP1;ratioP1;P1;durP2;ratioP2;P2;SDS_P1;SDS_P2;PMS_P1;PMS_P2;Temp;Humidity;BMP_temperature;BMP_pressure;BME280_temperature;BME280_humidity;BME280_pressure;Samples;Min_cycle;Max_cycle;Signal;HPM_P1;HPM_P2
2021/12/21 00:00:51;;;;;;;3.35;1.17;;;;;;;-3.19;85.68;101734.00;5083218;28;20050;-68
2021/12/21 00:03:17;;;;;;;2.63;1.77;;;;;;;-3.17;85.56;101739.16;5083218;28;20484;-67
2021/12/21 00:05:43;;;;;;;4.30;1.80;;;;;;;-3.15;85.26;101732.56;5083419;28;20032;-67
2021/12/21 00:08:11;;;;;;;2.97;1.65;;;;;;;-3.21;85.42;101729.59;5083183;28;20027;-67
2021/12/21 00:10:38;;;;;;;4.35;2.33;;;;;;;-3.19;85.51;101733.09;5081524;28;20047;-68
2021/12/21 00:18:36;;;;;;;4.03;1.75;;;;;;;-3.27;85.66;101727.47;5066779;28;20060;-68
2021/12/21 00:23:40;;;;;;;4.15;1.55;;;;;;;-3.29;85.63;101734.13;5083025;28;20206;-67
2021/12/21 00:26:19;;;;;;;4.30;2.03;;;;;;;-3.30;85.42;101732.34;5081633;28;20415;-68
2021/12/21 00:29:06;;;;;;;2.50;1.70;;;;;;;-3.34;85.32;101732.94;5083231;28;20086;-68
2021/12/21 00:31:33;;;;;;;2.92;1.73;;;;;;;-3.31;85.28;101728.06;5082682;28;20039;-68
2021/12/21 00:34:00;;;;;;;6.53;2.35;;;;;;;-3.35;85.38;101737.09;5082944;28;20123;-68
2021/12/21 00:36:27;;;;;;;3.97;1.92;;;;;;;-3.42;85.68;101735.78;5083057;28;20080;-68
2021/12/21 00:38:56;;;;;;;3.10;2.03;;;;;;;-3.44;85.88;101729.75;5083066;28;20032;-68
2021/12/21 00:41:22;;;;;;;3.40;1.90;;;;;;;-3.44;85.88;101731.38;5082811;28;20025;-67
2021/12/21 00:43:48;;;;;;;4.35;2.22;;;;;;;-3.45;85.88;101739.78;5081684;28;20131;-67
2021/12/21 00:46:14;;;;;;;5.97;2.40;;;;;;;-3.45;85.96;101737.25;5083023;28;20060;-68
2021/12/21 00:48:48;;;;;;;2.63;1.55;;;;;;;-3.42;85.60;101734.94;5082962;28;20048;-69
2021/12/21 00:51:14;;;;;;;3.95;2.13;;;;;;;-3.47;85.81;101744.75;5082878;28;20025;-68
2021/12/21 00:53:40;;;;;;;4.85;2.38;;;;;;;-3.51;86.09;101741.13;5082875;28;20028;-69
2021/12/21 00:56:06;;;;;;;4.63;2.67;;;;;;;-3.51;86.02;101750.38;5082767;28;20054;-69
2021/12/21 00:58:31;;;;;;;7.15;2.13;;;;;;;-3.53;86.28;101742.66;5082859;28;20120;-69
2021/12/21 01:00:57;;;;;;;4.95;2.25;;;;;;;-3.51;86.18;101747.84;5083502;28;20043;-68
2021/12/21 01:03:23;;;;;;;4.72;2.05;;;;;;;-3.55;85.94;101736.59;5086236;28;20020;-67
2021/12/21 01:06:00;;;;;;;5.20;2.00;;;;;;;-3.49;85.93;101743.75;5086190;28;20077;-67
2021/12/21 01:08:29;;;;;;;2.83;1.83;;;;;;;-3.49;85.70;101744.66;5086202;28;20020;-67
2021/12/21 01:11:14;;;;;;;6.03;2.10;;;;;;;-3.45;85.53;101738.13;5085922;28;20033;-69
2021/12/21 01:16:48;;;;;;;1.98;1.35;;;;;;;-3.43;85.36;101738.22;5086129;28;20107;-68
2021/12/21 01:19:17;;;;;;;5.50;1.25;;;;;;;-3.43;85.30;101740.75;5085908;28;20454;-68
2021/12/21 01:21:59;;;;;;;2.58;1.75;;;;;;;-3.45;85.08;101729.63;5085534;28;20025;-68
2021/12/21 01:24:40;;;;;;;4.47;2.08;;;;;;;-3.55;85.04;101723.03;5085707;28;20043;-68
2021/12/21 01:30:04;;;;;;;3.05;1.58;;;;;;;-3.61;85.28;101734.50;5085824;28;20025;-70
2021/12/21 01:35:07;;;;;;;5.30;2.17;;;;;;;-3.71;85.55;101734.63;5085904;28;20028;-67
2021/12/21 01:50:50;;;;;;;3.67;1.83;;;;;;;-3.79;86.04;101729.00;5085552;28;20482;-67
2021/12/21 01:53:16;;;;;;;2.50;1.38;;;;;;;-3.74;85.96;101727.66;5085287;28;20054;-67
2021/12/21 01:55:42;;;;;;;2.53;1.35;;;;;;;-3.70;85.70;101712.66;5085165;28;20070;-67
2021/12/21 01:58:09;;;;;;;1.90;1.13;;;;;;;-3.62;85.51;101726.78;5085359;28;20021;-68
2021/12/21 02:00:34;;;;;;;1.98;1.60;;;;;;;-3.63;85.38;101712.31;5085378;28;20024;-67
2021/12/21 02:03:02;;;;;;;2.85;1.77;;;;;;;-3.56;85.13;101717.06;5083884;28;20123;-67
2021/12/21 02:05:28;;;;;;;3.42;2.00;;;;;;;-3.63;85.27;101714.88;5085261;28;20032;-67
2021/12/21 02:07:53;;;;;;;3.88;1.70;;;;;;;-3.62;85.20;101712.44;5085221;28;20032;-67
2021/12/21 02:10:19;;;;;;;2.67;1.55;;;;;;;-3.65;85.20;101706.25;5084818;28;20097;-68
2021/12/21 02:12:44;;;;;;;2.05;1.35;;;;;;;-3.63;85.29;101709.78;5084069;28;20050;-68
2021/12/21 02:15:10;;;;;;;2.08;1.52;;;;;;;-3.67;85.38;101703.59;5085078;28;20058;-68
2021/12/21 02:18:03;;;;;;;3.60;1.95;;;;;;;-3.60;85.32;101702.38;5084878;28;20044;-69
2021/12/21 02:31:06;;;;;;;3.17;1.45;;;;;;;-3.69;85.24;101694.97;5084620;28;20024;-68
2021/12/21 02:33:32;;;;;;;1.70;1.40;;;;;;;-3.68;85.15;101711.13;5084543;28;20021;-67
2021/12/21 02:35:58;;;;;;;3.75;2.25;;;;;;;-3.71;85.24;101690.59;5084706;28;20028;-67
2021/12/21 02:38:28;;;;;;;4.07;1.77;;;;;;;-3.79;85.46;101675.72;5084694;28;20024;-68
2021/12/21 02:40:54;;;;;;;3.78;1.70;;;;;;;-3.68;85.18;101680.66;5082932;28;20291;-67
2021/12/21 02:43:20;;;;;;;4.50;2.15;;;;;;;-3.70;85.29;101674.56;5084271;28;20024;-67
2021/12/21 02:45:46;;;;;;;4.53;1.70;;;;;;;-3.69;85.14;101666.22;5084472;28;20039;-68
2021/12/21 02:48:12;;;;;;;3.38;1.58;;;;;;;-3.69;85.20;101668.75;5084283;28;20016;-68
2021/12/21 02:50:39;;;;;;;2.53;1.52;;;;;;;-3.67;85.05;101667.16;5084413;28;20166;-68
2021/12/21 02:53:06;;;;;;;3.67;1.70;;;;;;;-3.68;85.00;101661.25;5084058;28;20032;-68
2021/12/21 02:55:32;;;;;;;3.80;1.80;;;;;;;-3.66;84.92;101664.75;5083998;28;20084;-68
2021/12/21 02:57:57;;;;;;;2.80;1.52;;;;;;;-3.65;85.06;101655.47;5084343;28;20344;-68
2021/12/21 03:00:28;;;;;;;2.30;1.67;;;;;;;-3.64;84.82;101657.22;5083987;28;20024;-69
2021/12/21 03:02:54;;;;;;;2.85;1.67;;;;;;;-3.62;84.62;101660.78;5084138;28;20025;-68
2021/12/21 03:05:20;;;;;;;3.60;1.80;;;;;;;-3.66;84.74;101658.81;5084070;28;20096;-68
2021/12/21 03:10:22;;;;;;;1.88;1.48;;;;;;;-3.66;84.87;101663.88;5083667;28;20044;-69
2021/12/21 03:15:20;;;;;;;5.22;1.80;;;;;;;-3.67;84.94;101669.72;5084042;28;20024;-68
2021/12/21 03:17:45;;;;;;;4.10;2.20;;;;;;;-3.70;84.92;101667.84;5083611;28;20472;-67
2021/12/21 03:20:11;;;;;;;2.83;1.98;;;;;;;-3.68;84.77;101675.56;5083680;28;20046;-68
2021/12/21 03:22:37;;;;;;;2.35;1.67;;;;;;;-3.70;84.81;101662.78;5083691;28;20027;-68
2021/12/21 03:25:03;;;;;;;3.42;1.63;;;;;;;-3.68;84.39;101662.88;5083391;28;20028;-68
2021/12/21 03:27:28;;;;;;;3.92;1.67;;;;;;;-3.77;84.32;101658.91;5083634;28;20024;-68
2021/12/21 03:29:53;;;;;;;4.05;1.77;;;;;;;-3.75;84.31;101670.06;5083653;28;20051;-68
2021/12/21 03:32:19;;;;;;;5.60;1.90;;;;;;;-3.74;84.32;101659.13;5083544;28;20028;-68
2021/12/21 03:34:44;;;;;;;2.28;1.15;;;;;;;-3.75;84.33;101665.00;5083660;28;20028;-68
2021/12/21 03:37:13;;;;;;;3.50;1.92;;;;;;;-3.78;84.13;101659.69;5083581;28;20017;-67
2021/12/21 03:39:42;;;;;;;4.05;2.13;;;;;;;-3.85;84.50;101667.66;5083445;28;20559;-68
2021/12/21 03:42:09;;;;;;;5.93;2.30;;;;;;;-3.87;84.30;101661.59;5083216;28;20029;-67
2021/12/21 03:44:35;;;;;;;4.85;2.00;;;;;;;-3.92;84.50;101656.19;5083457;28;20028;-67
2021/12/21 03:47:02;;;;;;;4.80;2.15;;;;;;;-3.86;84.41;101673.50;5083309;28;20029;-68
2021/12/21 03:52:06;;;;;;;4.03;2.30;;;;;;;-3.90;84.42;101674.06;5083314;28;20024;-68
2021/12/21 03:54:32;;;;;;;2.60;1.50;;;;;;;-3.89;84.51;101670.75;5083231;28;20028;-68
2021/12/21 03:56:57;;;;;;;3.40;1.55;;;;;;;-3.91;84.50;101670.63;5083479;28;20047;-68
2021/12/21 03:59:23;;;;;;;3.80;2.28;;;;;;;-3.81;84.42;101678.91;5083358;28;20088;-68
2021/12/21 04:01:49;;;;;;;3.17;1.95;;;;;;;-3.81;84.46;101671.28;5083376;28;20162;-68
2021/12/21 04:04:19;;;;;;;2.47;1.60;;;;;;;-3.83;84.47;101676.25;5083254;28;20032;-67
2021/12/21 04:06:45;;;;;;;2.72;1.48;;;;;;;-3.78;84.27;101674.94;5082998;28;20035;-69
2021/12/21 04:09:11;;;;;;;5.50;2.00;;;;;;;-3.70;84.11;101672.03;5083346;28;20017;-69
2021/12/21 04:11:36;;;;;;;2.80;1.83;;;;;;;-3.75;84.13;101656.47;5083114;28;20072;-69
2021/12/21 04:14:02;;;;;;;4.75;2.00;;;;;;;-3.69;83.86;101669.59;5083127;28;20117;-70
2021/12/21 04:16:28;;;;;;;4.40;2.20;;;;;;;-3.71;83.63;101663.56;5083226;28;20086;-67
2021/12/21 04:18:53;;;;;;;4.15;1.75;;;;;;;-3.78;83.83;101674.94;5083200;28;20084;-70
2021/12/21 04:21:19;;;;;;;2.10;1.60;;;;;;;-3.77;83.57;101669.06;5082866;28;20090;-69
2021/12/21 04:23:44;;;;;;;3.15;1.48;;;;;;;-3.76;83.48;101668.31;5083017;28;20045;-68
2021/12/21 04:26:12;;;;;;;2.83;1.50;;;;;;;-3.78;83.29;101653.72;5082910;28;20109;-68
2021/12/21 04:28:38;;;;;;;3.55;1.30;;;;;;;-3.80;83.20;101651.09;5083357;28;20056;-68
2021/12/21 04:31:04;;;;;;;4.30;1.80;;;;;;;-3.79;83.36;101652.88;5083306;28;20074;-68
2021/12/21 04:33:30;;;;;;;2.78;1.73;;;;;;;-3.81;83.05;101659.47;5083120;28;20050;-68
2021/12/21 04:35:56;;;;;;;4.43;2.25;;;;;;;-3.83;83.31;101657.63;5082432;28;20020;-69
2021/12/21 04:38:23;;;;;;;2.42;1.30;;;;;;;-3.83;83.27;101645.78;5086971;28;20028;-69
2021/12/21 04:41:07;;;;;;;3.55;1.67;;;;;;;-3.79;83.04;101646.91;5086626;28;20016;-68
2021/12/21 04:43:32;;;;;;;9.02;1.58;;;;;;;-3.82;82.83;101642.50;5086733;28;20020;-69
2021/12/21 04:45:57;;;;;;;3.97;1.42;;;;;;;-3.86;83.13;101645.59;5086665;28;20031;-68
2021/12/21 04:48:23;;;;;;;4.25;1.33;;;;;;;-3.89;82.95;101645.38;5086563;28;20034;-68
2021/12/21 04:50:49;;;;;;;2.78;1.60;;;;;;;-3.86;82.78;101646.47;5086598;28;20549;-69
2021/12/21 04:53:15;;;;;;;3.38;1.58;;;;;;;-3.94;82.67;101639.06;5086423;28;20076;-70
2021/12/21 04:55:40;;;;;;;2.28;1.98;;;;;;;-3.92;82.75;101650.22;5086265;28;20021;-72
2021/12/21 04:58:06;;;;;;;2.65;1.50;;;;;;;-3.98;82.75;101638.84;5086573;28;20029;-69
2021/12/21 05:00:32;;;;;;;4.53;1.88;;;;;;;-3.94;83.00;101642.50;5086295;28;20024;-69
2021/12/21 05:02:57;;;;;;;1.65;1.33;;;;;;;-3.91;83.10;101645.25;5086276;28;20020;-70
2021/12/21 05:05:23;;;;;;;4.10;2.47;;;;;;;-3.85;83.01;101642.28;5086263;28;20114;-68
2021/12/21 05:07:54;;;;;;;5.18;1.95;;;;;;;-3.75;82.79;101633.66;5086263;28;20092;-67
2021/12/21 05:10:20;;;;;;;7.85;1.67;;;;;;;-3.77;82.48;101625.91;5085899;28;20051;-67
2021/12/21 05:12:46;;;;;;;4.72;1.90;;;;;;;-3.75;82.24;101634.53;5085965;28;20107;-67
2021/12/21 05:15:11;;;;;;;2.35;1.25;;;;;;;-3.84;82.56;101633.91;5086231;28;20024;-68
2021/12/21 05:17:37;;;;;;;3.08;1.73;;;;;;;-3.84;82.57;101638.06;5085935;28;20020;-68
2021/12/21 05:20:03;;;;;;;6.28;1.60;;;;;;;-3.94;82.67;101632.34;5086053;28;20174;-67
2021/12/21 05:22:29;;;;;;;4.93;1.58;;;;;;;-3.90;82.58;101634.31;5085757;28;20020;-67
2021/12/21 05:24:54;;;;;;;2.25;1.67;;;;;;;-3.86;82.41;101635.44;5085691;28;20154;-67
2021/12/21 05:27:20;;;;;;;3.03;1.38;;;;;;;-3.88;82.25;101629.34;5085877;28;20432;-68
2021/12/21 05:29:46;;;;;;;2.13;1.20;;;;;;;-3.85;82.19;101629.59;5085933;28;20028;-65
2021/12/21 05:32:11;;;;;;;2.88;1.40;;;;;;;-3.89;82.02;101625.97;5085933;28;20016;-68
2021/12/21 05:34:37;;;;;;;3.42;1.55;;;;;;;-3.90;82.14;101626.72;5085970;28;20055;-67
2021/12/21 05:37:06;;;;;;;2.90;1.67;;;;;;;-3.87;82.00;101626.06;5085685;28;20032;-67
2021/12/21 05:39:41;;;;;;;3.17;1.85;;;;;;;-3.93;82.13;101631.56;5084018;28;20021;-68
2021/12/21 05:42:08;;;;;;;4.72;2.05;;;;;;;-3.99;82.22;101621.88;5085457;28;20392;-67
2021/12/21 05:44:33;;;;;;;6.53;2.45;;;;;;;-3.92;82.21;101629.94;5085916;28;20047;-68
2021/12/21 05:46:59;;;;;;;3.05;1.70;;;;;;;-3.89;81.87;101625.06;5083662;28;20021;-67
2021/12/21 05:49:24;;;;;;;2.30;1.48;;;;;;;-3.98;82.03;101628.72;5085018;28;20104;-68
2021/12/21 05:51:50;;;;;;;3.60;2.20;;;;;;;-4.01;82.42;101631.03;5085440;28;20021;-69
2021/12/21 05:54:18;;;;;;;3.42;1.40;;;;;;;-3.95;82.05;101634.78;5085355;28;20024;-69
2021/12/21 05:56:45;;;;;;;4.97;1.77;;;;;;;-3.93;82.16;101628.19;5085346;28;20039;-69
2021/12/21 05:59:10;;;;;;;4.40;1.75;;;;;;;-3.93;82.02;101623.97;5085296;28;20112;-69
2021/12/21 06:01:35;;;;;;;2.80;1.52;;;;;;;-3.90;82.18;101623.31;5085624;28;20032;-69
2021/12/21 06:04:01;;;;;;;4.45;2.35;;;;;;;-3.92;82.17;101609.63;5085393;28;20027;-68
2021/12/21 06:06:30;;;;;;;2.75;1.92;;;;;;;-3.82;81.94;101619.66;5085610;28;20033;-68
2021/12/21 06:08:57;;;;;;;3.40;1.77;;;;;;;-3.85;81.96;101614.38;5085217;28;20020;-70
2021/12/21 06:11:23;;;;;;;2.10;1.40;;;;;;;-3.88;81.74;101609.06;5084881;28;20040;-70
2021/12/21 06:27:36;;;;;;;11.80;2.67;;;;;;;-3.86;81.53;101589.75;5084966;28;20035;-70
2021/12/21 06:30:04;;;;;;;3.15;1.52;;;;;;;-3.94;81.36;101586.69;5084522;28;20029;-70
2021/12/21 06:32:29;;;;;;;3.00;1.77;;;;;;;-3.96;81.32;101607.66;5083155;28;20017;-69
2021/12/21 06:34:55;;;;;;;5.78;2.00;;;;;;;-4.09;81.48;101590.69;5084483;28;20060;-69
2021/12/21 06:37:20;;;;;;;6.15;2.13;;;;;;;-4.10;81.76;101594.88;5083002;28;20044;-69
2021/12/21 06:39:46;;;;;;;6.18;2.10;;;;;;;-4.07;81.69;101597.63;5084066;28;20020;-69
2021/12/21 06:42:12;;;;;;;3.05;1.65;;;;;;;-4.08;81.50;101603.47;5084292;28;20056;-69
2021/12/21 06:44:42;;;;;;;5.18;2.10;;;;;;;-4.14;81.80;101593.75;5084496;28;20076;-70
2021/12/21 06:51:09;;;;;;;2.75;1.83;;;;;;;-4.15;81.71;101606.34;5084076;28;20050;-70
2021/12/21 06:52:38;;;;;;;4.25;1.55;;;;;;;-4.17;81.79;101611.31;5084575;28;20032;-70
2021/12/21 06:55:06;;;;;;;2.92;1.85;;;;;;;-4.20;81.86;101607.69;5084001;28;20025;-69
2021/12/21 06:57:34;;;;;;;3.33;1.60;;;;;;;-4.17;81.87;101611.31;5084203;28;20020;-69
2021/12/21 07:00:00;;;;;;;2.45;1.35;;;;;;;-4.12;81.79;101611.66;5083961;28;20050;-69
2021/12/21 07:02:26;;;;;;;4.95;1.85;;;;;;;-4.08;81.68;101618.69;5082593;28;20025;-69
2021/12/21 07:04:52;;;;;;;2.70;1.50;;;;;;;-4.10;81.81;101615.16;5084221;28;20028;-69
2021/12/21 07:07:17;;;;;;;2.17;1.40;;;;;;;-4.12;81.88;101598.97;5083947;28;20028;-69
2021/12/21 07:09:46;;;;;;;3.22;1.65;;;;;;;-4.05;81.92;101608.78;5083847;28;20512;-71
2021/12/21 07:20:29;;;;;;;3.80;2.80;;;;;;;-4.00;82.02;101606.56;5021282;28;20038;-71
2021/12/21 07:22:55;;;;;;;2.60;1.73;;;;;;;-4.02;81.97;101610.63;5004913;28;20076;-70
2021/12/21 07:25:21;;;;;;;5.75;2.55;;;;;;;-4.03;82.02;101609.78;5021170;28;20033;-71
2021/12/21 07:27:47;;;;;;;5.10;2.97;;;;;;;-4.12;82.40;101602.38;5021302;28;20066;-69
2021/12/21 07:30:12;;;;;;;3.03;1.77;;;;;;;-4.07;82.18;101611.97;5021222;28;20030;-69
2021/12/21 07:32:38;;;;;;;5.40;2.60;;;;;;;-4.09;82.31;101619.47;5021324;28;20041;-70
2021/12/21 07:35:04;;;;;;;3.75;1.67;;;;;;;-4.06;82.01;101607.03;5021301;28;20040;-71
2021/12/21 07:37:29;;;;;;;7.32;2.97;;;;;;;-4.06;81.91;101617.16;5021297;28;20096;-70
2021/12/21 07:39:55;;;;;;;3.67;2.15;;;;;;;-4.13;82.22;101612.41;5021197;28;20477;-69
2021/12/21 07:42:21;;;;;;;3.83;2.13;;;;;;;-4.20;82.25;101606.00;5020967;28;20445;-70
2021/12/21 07:44:49;;;;;;;3.60;1.83;;;;;;;-4.14;82.19;101603.91;5021153;28;20064;-70
2021/12/21 07:47:16;;;;;;;2.20;1.40;;;;;;;-4.14;82.28;101610.66;5082033;28;20040;-70
2021/12/21 07:49:42;;;;;;;5.32;2.20;;;;;;;-4.17;82.18;101607.91;5083866;28;20021;-70
2021/12/21 07:52:09;;;;;;;4.90;2.55;;;;;;;-4.17;82.23;101611.31;5083723;28;20027;-70
2021/12/21 07:54:35;;;;;;;6.30;2.35;;;;;;;-4.19;82.49;101615.41;5083490;28;20028;-69
2021/12/21 07:57:00;;;;;;;2.38;1.42;;;;;;;-4.20;82.35;101613.63;5083470;28;20028;-70
2021/12/21 07:59:26;;;;;;;4.93;1.98;;;;;;;-4.24;82.35;101604.03;5083613;28;20024;-70
2021/12/21 08:01:52;;;;;;;3.25;2.17;;;;;;;-4.19;82.28;101601.84;5083617;28;20064;-70
2021/12/21 08:04:21;;;;;;;4.18;2.20;;;;;;;-4.21;82.42;101604.25;5083330;28;20017;-69
2021/12/21 08:06:48;;;;;;;4.32;2.05;;;;;;;-4.19;82.37;101607.78;5083213;28;20088;-69
2021/12/21 08:09:14;;;;;;;9.88;2.97;;;;;;;-4.21;82.37;101601.72;5081842;28;20052;-69
2021/12/21 08:14:05;;;;;;;7.43;2.60;;;;;;;-4.23;82.24;101601.63;5087332;28;20126;-71
2021/12/21 08:16:30;;;;;;;3.63;2.20;;;;;;;-4.23;82.52;101614.28;5087337;28;20024;-70
2021/12/21 08:18:56;;;;;;;5.10;2.60;;;;;;;-4.21;82.58;101606.78;5087108;28;20090;-70
2021/12/21 08:21:24;;;;;;;4.80;2.55;;;;;;;-4.29;82.75;101591.03;5086991;28;20028;-69
2021/12/21 08:23:49;;;;;;;7.53;3.20;;;;;;;-4.16;82.71;101597.88;5087051;28;20070;-70
2021/12/21 08:26:15;;;;;;;5.25;2.53;;;;;;;-4.12;82.97;101592.22;5085665;28;20020;-69
2021/12/21 08:28:40;;;;;;;5.47;2.40;;;;;;;-4.04;82.50;101597.84;5086977;28;20032;-68
2021/12/21 08:31:10;;;;;;;5.68;2.63;;;;;;;-3.99;82.53;101606.66;5086886;28;20020;-69
2021/12/21 08:33:36;;;;;;;5.70;2.28;;;;;;;-3.99;82.31;101601.59;5086851;28;20017;-69
2021/12/21 08:36:02;;;;;;;3.60;2.42;;;;;;;-3.93;82.22;101605.34;5086916;28;20487;-70
2021/12/21 08:38:30;;;;;;;3.88;1.80;;;;;;;-3.93;82.23;101595.19;5086820;28;20080;-69
2021/12/21 08:40:58;;;;;;;3.15;1.50;;;;;;;-3.92;81.92;101590.22;5086266;28;20021;-71
2021/12/21 08:43:28;;;;;;;2.88;2.00;;;;;;;-3.84;81.75;101594.94;5086341;28;20048;-70
2021/12/21 08:45:55;;;;;;;3.33;1.48;;;;;;;-3.86;81.57;101594.84;5086821;28;20042;-70
2021/12/21 08:48:22;;;;;;;4.18;2.08;;;;;;;-3.83;81.64;101600.13;5086648;28;20028;-70
2021/12/21 08:50:49;;;;;;;5.32;2.45;;;;;;;-3.83;81.93;101595.03;5086604;28;20105;-69
2021/12/21 08:53:15;;;;;;;7.07;3.10;;;;;;;-3.82;82.00;101586.69;5086596;28;20486;-69
2021/12/21 08:55:42;;;;;;;4.60;2.40;;;;;;;-3.75;81.85;101588.84;5086306;28;20032;-71
2021/12/21 08:58:08;;;;;;;2.53;1.60;;;;;;;-3.72;81.54;101590.72;5086570;28;20055;-70
2021/12/21 09:00:34;;;;;;;2.47;2.00;;;;;;;-3.62;80.91;101594.75;5086575;28;20103;-69
2021/12/21 09:02:59;;;;;;;4.53;2.13;;;;;;;-3.64;80.87;101591.22;5084928;28;20500;-69
2021/12/21 09:05:29;;;;;;;5.25;1.70;;;;;;;-3.58;80.66;101593.34;5086477;28;20024;-70
2021/12/21 09:07:55;;;;;;;6.70;1.52;;;;;;;-3.53;80.26;101586.91;5086212;28;20017;-70
2021/12/21 09:10:22;;;;;;;2.45;1.60;;;;;;;-3.52;79.84;101581.94;5086021;28;20076;-70
2021/12/21 09:12:48;;;;;;;3.78;1.85;;;;;;;-3.59;80.03;101579.75;5086120;28;20020;-70
2021/12/21 09:15:16;;;;;;;3.30;2.00;;;;;;;-3.65;80.17;101582.75;5085998;28;20030;-70
2021/12/21 09:17:42;;;;;;;2.92;1.33;;;;;;;-3.63;80.49;101582.88;5084888;28;20077;-70
2021/12/21 09:20:10;;;;;;;2.97;1.95;;;;;;;-3.61;80.35;101577.09;5086048;28;20017;-70
2021/12/21 09:22:36;;;;;;;4.70;3.13;;;;;;;-3.53;79.94;101579.31;5085612;28;20020;-70
2021/12/21 09:25:03;;;;;;;5.13;1.92;;;;;;;-3.48;80.03;101585.56;5085787;28;20020;-70
2021/12/21 09:27:28;;;;;;;4.07;2.55;;;;;;;-3.56;80.04;101576.56;5085853;28;20112;-70
2021/12/21 09:29:53;;;;;;;3.30;2.17;;;;;;;-3.44;80.02;101590.09;5086041;28;20040;-70
2021/12/21 09:32:19;;;;;;;6.47;2.38;;;;;;;-3.47;79.95;101588.97;5085963;28;20028;-70
2021/12/21 09:34:46;;;;;;;1.63;1.02;;;;;;;-3.33;79.11;101585.72;5085789;28;20027;-70
2021/12/21 09:37:19;;;;;;;1.60;1.42;;;;;;;-3.43;79.03;101585.88;5085737;28;20076;-69
2021/12/21 09:39:47;;;;;;;1.58;1.45;;;;;;;-3.40;79.06;101594.56;5085477;28;20031;-69
2021/12/21 09:42:16;;;;;;;1.50;1.20;;;;;;;-3.42;78.96;101592.72;5084576;28;20056;-69
2021/12/21 09:44:42;;;;;;;2.90;1.75;;;;;;;-3.45;79.05;101585.75;5085553;28;20016;-69
2021/12/21 09:47:09;;;;;;;4.35;2.35;;;;;;;-3.38;78.94;101587.06;5085672;28;20023;-68
2021/12/21 09:49:35;;;;;;;2.42;2.05;;;;;;;-3.46;79.12;101585.66;5085480;28;20052;-70
2021/12/21 09:52:01;;;;;;;2.25;1.77;;;;;;;-3.45;78.87;101592.50;5085436;28;20047;-69
2021/12/21 09:54:27;;;;;;;3.05;2.03;;;;;;;-3.54;79.08;101586.03;5085424;28;20457;-69
2021/12/21 09:56:53;;;;;;;3.47;2.10;;;;;;;-3.53;79.34;101589.47;5085205;28;20051;-69
2021/12/21 09:59:18;;;;;;;2.58;1.52;;;;;;;-3.52;79.35;101589.56;5085258;28;20044;-70
2021/12/21 10:01:44;;;;;;;2.88;1.90;;;;;;;-3.52;79.26;101587.03;5085192;28;20400;-68
2021/12/21 10:04:09;;;;;;;1.95;1.40;;;;;;;-3.48;79.06;101590.63;5085204;28;20016;-69
2021/12/21 10:06:47;;;;;;;4.35;1.98;;;;;;;-3.50;79.17;101585.44;5083681;28;20021;-69
2021/12/21 10:09:13;;;;;;;6.78;2.15;;;;;;;-3.53;79.35;101579.31;5084921;28;20084;-71
2021/12/21 10:11:44;;;;;;;8.73;2.55;;;;;;;-3.46;79.19;101572.97;5084901;28;20181;-68
2021/12/21 10:14:10;;;;;;;4.35;1.60;;;;;;;-3.44;79.14;101584.13;5084809;28;20035;-69
2021/12/21 10:16:36;;;;;;;5.43;2.03;;;;;;;-3.54;79.53;101578.41;5085146;28;20020;-70
2021/12/21 10:19:02;;;;;;;5.63;2.75;;;;;;;-3.49;79.54;101582.16;5085014;28;20024;-69
2021/12/21 10:21:27;;;;;;;4.10;2.13;;;;;;;-3.43;80.23;101573.16;5084885;28;20025;-69
2021/12/21 10:23:54;;;;;;;6.07;2.60;;;;;;;-3.30;79.74;101578.31;5084865;28;20028;-68
2021/12/21 10:26:26;;;;;;;10.57;2.50;;;;;;;-3.24;79.55;101578.72;5083169;28;20024;-69
2021/12/21 10:28:58;;;;;;;4.00;2.35;;;;;;;-3.26;79.81;101577.72;5084565;28;20384;-69
2021/12/21 10:31:23;;;;;;;4.70;3.00;;;;;;;-3.21;80.10;101572.94;5084842;28;20016;-69
2021/12/21 10:33:49;;;;;;;4.55;2.25;;;;;;;-3.12;79.96;101577.78;5083705;28;20113;-70
2021/12/21 10:36:15;;;;;;;4.57;1.88;;;;;;;-3.08;80.20;101576.34;5084672;28;20030;-68
2021/12/21 10:38:49;;;;;;;7.97;2.30;;;;;;;-3.03;79.43;101567.34;5084430;28;20034;-69
2021/12/21 10:41:17;;;;;;;4.75;2.60;;;;;;;-3.11;79.40;101564.28;5084299;28;20028;-68
2021/12/21 10:43:43;;;;;;;5.30;2.20;;;;;;;-3.05;79.00;101563.84;5084244;28;20087;-68
2021/12/21 10:46:09;;;;;;;3.60;1.55;;;;;;;-3.03;78.45;101563.16;5083315;28;20027;-69
2021/12/21 10:48:37;;;;;;;6.22;2.15;;;;;;;-3.04;78.14;101568.13;5084401;28;20025;-69
2021/12/21 10:51:08;;;;;;;3.95;2.05;;;;;;;-3.09;78.12;101564.38;5083201;28;20025;-70
2021/12/21 10:53:34;;;;;;;3.93;2.53;;;;;;;-3.17;78.26;101559.69;5084289;28;20028;-68
2021/12/21 10:56:07;;;;;;;5.70;2.63;;;;;;;-3.22;78.46;101561.03;5084125;28;20031;-68
2021/12/21 10:58:37;;;;;;;6.78;2.40;;;;;;;-3.20;78.85;101559.50;5084344;28;20029;-68
2021/12/21 11:01:05;;;;;;;5.28;2.97;;;;;;;-3.13;78.46;101553.16;5084417;28;20013;-69
2021/12/21 11:03:38;;;;;;;1.88;1.08;;;;;;;-3.09;78.49;101549.16;5084139;28;20048;-70
2021/12/21 11:06:16;;;;;;;4.85;2.30;;;;;;;-3.08;78.22;101545.84;5082854;28;20522;-69
2021/12/21 11:08:44;;;;;;;3.90;2.38;;;;;;;-3.06;78.01;101549.34;5084115;28;20036;-70
2021/12/21 11:11:32;;;;;;;3.00;1.77;;;;;;;-3.07;78.13;101543.41;5083914;28;20059;-69
2021/12/21 11:14:08;;;;;;;4.97;2.67;;;;;;;-3.08;78.42;101543.31;5083983;28;20024;-69
2021/12/21 11:16:51;;;;;;;3.95;1.65;;;;;;;-3.07;78.09;101545.94;5084224;28;20053;-69
2021/12/21 11:19:19;;;;;;;1.83;1.42;;;;;;;-3.08;78.24;101541.63;5082920;28;20024;-68
2021/12/21 11:21:46;;;;;;;7.10;2.97;;;;;;;-3.04;78.19;101541.06;5084155;28;20024;-68
2021/12/21 11:24:15;;;;;;;7.90;3.00;;;;;;;-3.03;78.34;101542.81;5083917;28;20032;-69
2021/12/21 11:26:42;;;;;;;3.45;2.25;;;;;;;-2.99;78.04;101533.75;5083950;28;20016;-70
2021/12/21 11:29:10;;;;;;;3.17;2.40;;;;;;;-2.97;77.54;101537.25;5084023;28;20368;-71
2021/12/21 11:31:38;;;;;;;7.07;2.08;;;;;;;-3.00;77.58;101547.19;5083894;28;20023;-68
2021/12/21 11:34:08;;;;;;;2.85;1.75;;;;;;;-2.97;77.55;101544.00;5083688;28;20134;-69
2021/12/21 11:39:21;;;;;;;2.05;1.63;;;;;;;-2.98;77.11;101535.50;5083880;28;20055;-69
2021/12/21 11:41:46;;;;;;;1.83;1.67;;;;;;;-2.95;76.92;101530.59;5082136;28;20392;-70
2021/12/21 11:44:12;;;;;;;3.30;3.05;;;;;;;-2.78;76.19;101536.78;5083700;28;20035;-69
2021/12/21 11:46:54;;;;;;;8.30;2.40;;;;;;;-2.93;76.76;101533.25;5084111;28;20071;-70
2021/12/21 11:49:25;;;;;;;;;;;;;;;-2.81;76.37;101535.72;5084537;28;20016;-69
2021/12/21 11:51:51;;;;;;;11.05;2.35;;;;;;;-2.84;76.41;101538.06;5083872;28;20352;-69
2021/12/21 11:54:22;;;;;;;2.65;1.73;;;;;;;-2.83;76.43;101538.16;5083632;28;20025;-68
2021/12/21 11:56:48;;;;;;;5.57;2.58;;;;;;;-2.84;76.06;101538.91;5083787;28;20020;-69
2021/12/21 11:59:21;;;;;;;4.35;1.75;;;;;;;-2.83;76.36;101535.63;5082234;28;20055;-69
2021/12/21 12:01:47;;;;;;;4.20;2.30;;;;;;;-2.87;76.67;101529.44;5082047;28;20020;-69
2021/12/21 12:04:13;;;;;;;5.13;2.20;;;;;;;-2.87;76.60;101520.94;5083382;28;20031;-69
2021/12/21 12:06:49;;;;;;;10.68;3.05;;;;;;;-2.78;76.38;101518.97;5083316;28;20036;-69
2021/12/21 12:09:22;;;;;;;7.38;2.40;;;;;;;-2.76;76.13;101514.88;5083391;28;20039;-69
2021/12/21 12:11:47;;;;;;;4.25;2.38;;;;;;;-2.82;76.37;101517.03;5081865;28;20316;-69
2021/12/21 12:14:17;;;;;;;5.55;2.10;;;;;;;-2.72;75.76;101515.97;5083366;28;20024;-69
2021/12/21 12:16:45;;;;;;;1.35;1.23;;;;;;;-2.65;75.82;101518.09;5083632;28;20053;-70
2021/12/21 12:19:13;;;;;;;1.70;1.58;;;;;;;-2.63;75.30;101518.19;5083509;28;20029;-69
2021/12/21 12:21:39;;;;;;;3.60;2.08;;;;;;;-2.76;76.48;101524.16;5083186;28;20028;-69
2021/12/21 12:24:05;;;;;;;3.55;2.08;;;;;;;-2.79;76.77;101507.06;5083553;28;20024;-69
2021/12/21 12:26:38;;;;;;;1.10;1.00;;;;;;;-2.57;76.43;101523.69;5083307;28;20039;-70
2021/12/21 12:29:40;;;;;;;3.05;1.77;;;;;;;-2.52;75.73;101529.94;5081915;28;20039;-69
2021/12/21 12:32:07;;;;;;;2.42;1.90;;;;;;;-2.52;75.99;101523.97;5081897;28;20020;-69
2021/12/21 12:34:36;;;;;;;2.20;1.48;;;;;;;-2.47;75.63;101514.97;5083163;28;20227;-70
2021/12/21 12:37:23;;;;;;;4.47;1.73;;;;;;;-2.42;75.15;101522.88;5083286;28;20032;-69
2021/12/21 12:39:55;;;;;;;3.92;1.48;;;;;;;-2.30;74.05;101517.69;5083402;28;20025;-69
2021/12/21 12:42:34;;;;;;;1.00;0.90;;;;;;;-2.18;73.52;101517.56;5081830;28;20021;-68
2021/12/21 12:45:18;;;;;;;4.57;2.05;;;;;;;-2.35;74.25;101516.53;5082050;28;20036;-70